Rayville, Missouri
Current Conditions -  °F | °C
As of 6:55 AM on Wednesday 26 Nov 2014 (Local Time) from KGPH Reporting Station
Overcast Overcast  
Wind Chill: 34°   Ceiling: 5000
Heat Index: 34°   Visibility: 10mi
Dew Point: 34°   Wind: 3mph
Humidity: 100%   Direction: 200°SSW
Pressure: 29.92"   Gusts: NA
Location:  39.35°N, 94.06°W
Report Text: KGPH 261255Z AUTO 20003KT 10SM SCT033 OVC050 01/01 A2992 RMK AO2
Loading
Personal Weather Stations






























Interactive Weather Map New forecast layout! Learn more

10-Day Weather Forecast

Advertisements
Track Severe Weather on mobile